Details From OMRK - Ras Al Khaimah Intl
To OIBL - Bandar Lengeh
Flight Number -
Tags Decoded
Created
Modified
Stats Distance 81 nm / 150 km
Max Altitude 0 ft / 0 m
Waypoints 2
Social Downloads 3
Likes 0
Share VATSIM

Download

Looking for another format? Having issues loading an existing format? Contact us
Advertisement - Login to hide

Notes

Decoded

Route

OMRK OIBL

ID Type Via Altitude Latitude Longitude Leg Dist Tot Dist Heading (true) Name
O OMRK APT - 0 ft / 0 m 25.62974˚ 55.93391˚ - 0 nm - -
O OIBL APT - 0 ft / 0 m 26.53043˚ 54.81242˚ 81 nm 81 nm 312° / 312° -

Altitude Profile

Advertisement - Login to hide

OMRK

Details ICAO OMRK (RKT)
Name RAS AL KHAIMAH INTL
Region United Arab Emirates
Timezone Asia/Dubai (UTC+4.0)
Stats Elevation 102 ft / 31 m (AMSL)
Location 25.613352° 55.938831°
Runways 1
Magnetic Variation 2.052° E

METAR

OMRK 130500Z 00000KT 8000 NSC 18/11 Q1019 A3012

Decode

TAF

TAF OMRK 122301Z 1300/1406 12008KT CAVOK PROB30 TEMPO 1307/1313 10017G27KT 3000 BLDU

Decode

Departure Runways

ID Width Length Bearing (true) Bearing (mag) Surface Threshold Offset Overrun Length
16 148 ft / 45 m 12,391 ft / 3,777 m 164.83° 162.78° Asphalt 0 ft / 0 m 165 ft / 50 m
34 148 ft / 45 m 12,391 ft / 3,777 m 344.84° 342.79° Asphalt 0 ft / 0 m 165 ft / 50 m

OIBL

Details ICAO OIBL (BDH)
Name BANDAR LENGEH
Region Iran
Timezone Asia/Tehran (UTC+3.5)
Stats Elevation 67 ft / 20 m (AMSL)
Location 26.532269° 54.824801°
Runways 1
Magnetic Variation 2.339° E

METAR

OIBL 130500Z 08012KT 8000 NSC 20/05 Q1019

Decode

TAF

Not found

Destination Runways

ID Width Length Bearing (true) Bearing (mag) Surface Threshold Offset Overrun Length
08 148 ft / 45 m 8,192 ft / 2,497 m 80.57° 78.23° Asphalt 0 ft / 0 m 469 ft / 143 m
26 148 ft / 45 m 8,192 ft / 2,497 m 260.58° 258.24° Asphalt 0 ft / 0 m 479 ft / 146 m